Time;durP1;ratioP1;P1;durP2;ratioP2;P2;SDS_P1;SDS_P2;PMS_P1;PMS_P2;Temp;Humidity;BMP_temperature;BMP_pressure;BME280_temperature;BME280_humidity;BME280_pressure;Samples;Min_cycle;Max_cycle;Signal;HPM_P1;HPM_P2
2023/08/10 00:00:09;;;;;;;1.55;1.40;;;28.40;44.40;;;;;;4993384;28;20547;-71
2023/08/10 00:02:35;;;;;;;1.92;1.60;;;28.30;44.40;;;;;;4990465;28;20046;-71
2023/08/10 00:05:01;;;;;;;1.73;1.45;;;28.40;44.40;;;;;;4974875;28;20102;-70
2023/08/10 00:07:28;;;;;;;2.42;1.80;;;28.30;44.50;;;;;;4990759;28;20455;-71
2023/08/10 00:09:54;;;;;;;3.03;1.85;;;28.40;44.50;;;;;;4990774;28;20057;-71
2023/08/10 00:12:24;;;;;;;3.63;2.20;;;28.30;44.60;;;;;;4990627;28;20082;-71
2023/08/10 00:15:00;;;;;;;2.40;1.58;;;28.50;44.60;;;;;;4990439;28;20038;-71
2023/08/10 00:17:29;;;;;;;1.40;1.30;;;28.50;44.60;;;;;;4990526;28;20066;-72
2023/08/10 00:19:55;;;;;;;4.47;1.73;;;28.30;44.60;;;;;;4974114;28;20038;-71
2023/08/10 00:22:42;;;;;;;1.83;1.52;;;28.30;44.70;;;;;;4990347;28;20037;-71
2023/08/10 00:25:08;;;;;;;2.33;1.63;;;28.30;44.70;;;;;;4990577;28;20034;-71
2023/08/10 00:27:38;;;;;;;2.85;1.80;;;28.30;44.70;;;;;;4990419;28;20597;-71
2023/08/10 00:30:11;;;;;;;1.92;1.25;;;28.10;44.70;;;;;;4974101;28;20034;-70
2023/08/10 00:32:38;;;;;;;2.75;1.73;;;28.20;44.80;;;;;;4973857;28;20047;-71
2023/08/10 00:35:19;;;;;;;3.50;1.58;;;28.30;44.80;;;;;;4989482;28;20510;-71
2023/08/10 00:37:46;;;;;;;1.70;1.60;;;28.20;44.90;;;;;;4990075;28;20080;-73
2023/08/10 00:40:12;;;;;;;2.83;1.90;;;28.30;44.80;;;;;;4982566;28;20105;-72
2023/08/10 00:42:39;;;;;;;3.33;2.00;;;28.20;45.00;;;;;;4991134;28;20034;-71
2023/08/10 00:45:06;;;;;;;3.70;1.77;;;28.30;45.00;;;;;;4992210;28;20030;-72
2023/08/10 00:47:32;;;;;;;2.88;1.98;;;28.30;45.10;;;;;;4991006;28;20056;-72
2023/08/10 00:49:59;;;;;;;2.28;1.85;;;28.10;45.10;;;;;;4992417;28;20346;-72
2023/08/10 00:52:25;;;;;;;3.80;1.80;;;28.20;45.10;;;;;;4992489;28;20031;-72
2023/08/10 00:54:54;;;;;;;1.83;1.65;;;28.30;45.10;;;;;;4989638;28;20822;-72
2023/08/10 00:57:27;;;;;;;2.05;1.63;;;28.20;45.20;;;;;;4989800;28;20041;-72
2023/08/10 00:59:53;;;;;;;;;;;28.20;45.20;;;;;;4990400;28;20074;-72
2023/08/10 01:02:21;;;;;;;2.63;1.55;;;28.30;45.30;;;;;;4973692;28;19913;-72
2023/08/10 01:04:47;;;;;;;2.97;2.00;;;28.30;45.30;;;;;;4973140;28;20046;-72
2023/08/10 01:07:49;;;;;;;2.75;1.70;;;28.40;45.40;;;;;;4989605;28;20046;-71
2023/08/10 01:10:37;;;;;;;1.95;1.75;;;28.30;45.50;;;;;;4957313;28;20053;-72
2023/08/10 01:13:22;;;;;;;2.17;1.50;;;28.30;45.50;;;;;;4989538;28;20061;-72
2023/08/10 01:16:10;;;;;;;2.45;1.50;;;28.40;45.50;;;;;;4962639;28;20038;-71
2023/08/10 01:18:43;;;;;;;4.57;1.70;;;28.40;45.60;;;;;;4973338;28;20057;-71
2023/08/10 01:21:40;;;;;;;2.20;1.48;;;28.40;45.60;;;;;;4973499;28;20046;-71
2023/08/10 01:24:19;;;;;;;2.22;1.55;;;28.50;45.60;;;;;;4973237;28;20046;-71
2023/08/10 01:26:55;;;;;;;3.05;1.80;;;28.40;45.60;;;;;;4991365;28;20058;-72
2023/08/10 01:29:30;;;;;;;1.85;1.75;;;28.40;45.70;;;;;;4975426;28;20092;-71
2023/08/10 01:32:12;;;;;;;2.08;1.70;;;28.30;45.70;;;;;;4990400;28;20072;-71
2023/08/10 01:34:38;;;;;;;1.97;1.60;;;28.50;45.70;;;;;;4990195;28;20050;-71
2023/08/10 01:37:07;;;;;;;2.30;1.75;;;28.50;45.60;;;;;;4991659;28;20089;-71
2023/08/10 01:39:33;;;;;;;3.10;1.83;;;28.40;45.70;;;;;;4990600;28;20669;-71
2023/08/10 01:41:59;;;;;;;1.67;1.38;;;28.50;45.70;;;;;;4990613;28;20026;-71
2023/08/10 01:44:40;;;;;;;1.85;1.50;;;28.60;45.80;;;;;;4991445;28;20477;-71
2023/08/10 01:47:23;;;;;;;4.10;1.95;;;28.40;45.80;;;;;;4991619;28;20137;-72
2023/08/10 01:49:54;;;;;;;3.33;2.25;;;28.60;45.80;;;;;;4991804;28;20088;-71
2023/08/10 01:52:25;;;;;;;2.80;1.77;;;28.50;45.80;;;;;;4991466;28;20533;-71
2023/08/10 01:54:52;;;;;;;2.50;1.65;;;28.60;45.80;;;;;;4990054;28;20046;-72
2023/08/10 01:57:22;;;;;;;3.17;1.70;;;28.60;45.80;;;;;;4990093;28;20039;-72
2023/08/10 01:59:48;;;;;;;3.00;2.00;;;28.50;45.80;;;;;;4990170;28;20043;-71
2023/08/10 02:02:14;;;;;;;3.72;1.80;;;28.40;45.80;;;;;;4990120;28;20042;-71
2023/08/10 02:04:40;;;;;;;3.63;1.63;;;28.60;45.80;;;;;;4990339;28;20046;-71
2023/08/10 02:07:06;;;;;;;2.50;1.67;;;28.60;45.80;;;;;;4991385;28;20125;-71
2023/08/10 02:09:54;;;;;;;1.95;1.65;;;28.50;45.80;;;;;;4991267;28;20113;-71
2023/08/10 02:12:20;;;;;;;3.08;2.60;;;28.60;45.80;;;;;;4991355;28;20509;-71
2023/08/10 02:14:46;;;;;;;3.80;2.05;;;28.60;45.80;;;;;;4973779;28;20072;-71
2023/08/10 02:17:14;;;;;;;2.58;1.48;;;28.50;45.80;;;;;;4989985;28;20431;-70
2023/08/10 02:19:40;;;;;;;1.95;1.77;;;28.50;45.80;;;;;;4990104;28;20030;-71
2023/08/10 02:22:07;;;;;;;3.58;1.98;;;28.40;45.80;;;;;;4991392;28;20031;-71
2023/08/10 02:24:33;;;;;;;2.78;1.88;;;28.70;45.80;;;;;;4990956;28;20038;-72
2023/08/10 02:27:00;;;;;;;1.85;1.65;;;28.40;45.80;;;;;;4990095;28;20042;-71
2023/08/10 02:29:29;;;;;;;4.80;1.83;;;28.50;45.80;;;;;;4991099;28;20470;-71
2023/08/10 02:31:57;;;;;;;2.42;1.85;;;28.40;45.80;;;;;;4990069;28;20030;-71
2023/08/10 02:34:23;;;;;;;4.07;2.15;;;28.50;45.80;;;;;;4990654;28;20057;-71
2023/08/10 02:36:49;;;;;;;1.90;1.67;;;28.50;45.90;;;;;;4990012;28;20459;-71
2023/08/10 02:39:15;;;;;;;3.33;1.92;;;28.40;45.90;;;;;;4990873;28;20069;-71
2023/08/10 02:41:42;;;;;;;1.92;1.73;;;28.40;45.90;;;;;;4991360;28;20048;-71
2023/08/10 02:44:08;;;;;;;3.28;2.08;;;28.40;45.90;;;;;;4990997;28;20038;-72
2023/08/10 02:46:34;;;;;;;3.38;2.13;;;28.40;45.90;;;;;;4973719;28;20125;-71
2023/08/10 02:49:00;;;;;;;2.42;1.65;;;28.40;45.90;;;;;;4989842;28;20072;-71
2023/08/10 02:51:27;;;;;;;4.32;2.10;;;28.50;45.90;;;;;;4990979;28;20496;-72
2023/08/10 02:54:05;;;;;;;2.88;2.10;;;28.50;45.90;;;;;;4990925;28;20038;-70
2023/08/10 02:56:31;;;;;;;2.05;1.88;;;28.50;45.90;;;;;;4991084;28;20041;-71
2023/08/10 02:58:57;;;;;;;2.50;2.30;;;28.50;45.90;;;;;;4992598;28;20034;-71
2023/08/10 03:01:39;;;;;;;2.25;2.00;;;28.40;45.90;;;;;;4993159;28;20038;-71
2023/08/10 03:04:08;;;;;;;2.80;1.60;;;28.50;45.90;;;;;;4993108;28;20446;-71
2023/08/10 03:06:43;;;;;;;3.90;2.10;;;28.40;45.90;;;;;;4994086;28;20482;-72
2023/08/10 03:09:10;;;;;;;1.65;1.33;;;28.40;45.90;;;;;;4976942;28;20447;-72
2023/08/10 03:11:37;;;;;;;2.35;1.67;;;28.60;46.00;;;;;;4992965;28;20034;-72
2023/08/10 03:14:04;;;;;;;2.97;1.92;;;28.50;46.00;;;;;;4993045;28;20042;-71
2023/08/10 03:16:31;;;;;;;1.98;1.40;;;28.40;46.00;;;;;;4994193;28;20101;-71
2023/08/10 03:18:57;;;;;;;2.15;1.52;;;28.40;46.00;;;;;;4992911;28;20034;-72
2023/08/10 03:21:24;;;;;;;2.78;1.90;;;28.50;46.00;;;;;;4994048;28;20045;-71
2023/08/10 03:23:50;;;;;;;2.55;1.58;;;28.40;46.10;;;;;;4992711;28;20046;-71
2023/08/10 03:26:17;;;;;;;2.15;1.70;;;28.30;46.10;;;;;;4976340;28;20039;-71
2023/08/10 03:28:44;;;;;;;2.30;1.58;;;28.40;46.10;;;;;;4993836;28;20133;-71
2023/08/10 03:31:13;;;;;;;3.80;1.85;;;28.30;46.10;;;;;;4993920;28;20041;-71
2023/08/10 03:33:40;;;;;;;1.95;1.85;;;28.40;46.10;;;;;;4990240;28;20064;-71
2023/08/10 03:36:07;;;;;;;3.47;2.13;;;28.30;46.20;;;;;;4993729;28;20474;-71
2023/08/10 03:38:33;;;;;;;2.08;1.75;;;28.40;46.10;;;;;;4993807;28;20038;-72
2023/08/10 03:41:00;;;;;;;1.67;1.50;;;28.30;46.10;;;;;;4993820;28;20510;-71
2023/08/10 03:43:33;;;;;;;2.35;1.90;;;28.50;46.10;;;;;;4992057;28;20551;-71
2023/08/10 03:46:02;;;;;;;2.53;1.70;;;28.30;46.10;;;;;;4975850;28;20042;-70
2023/08/10 03:48:29;;;;;;;7.18;1.83;;;28.30;46.20;;;;;;4992294;28;20138;-69
2023/08/10 03:50:55;;;;;;;3.03;1.95;;;28.30;46.00;;;;;;4993825;28;20026;-69
2023/08/10 03:53:21;;;;;;;4.70;3.40;;;28.50;45.50;;;;;;4993625;28;20026;-68
2023/08/10 03:55:53;;;;;;;11.80;3.70;;;28.30;44.50;;;;;;4990788;28;20057;-68
2023/08/10 03:58:19;;;;;;;6.80;3.00;;;28.30;43.50;;;;;;4958278;28;20042;-69
2023/08/10 04:00:45;;;;;;;10.48;3.05;;;28.40;42.90;;;;;;4990955;28;20192;-69
2023/08/10 04:03:22;;;;;;;4.30;2.70;;;28.30;42.40;;;;;;4975898;28;20502;-68
2023/08/10 04:05:49;;;;;;;6.40;2.83;;;28.30;42.10;;;;;;4974475;28;20232;-69
2023/08/10 04:08:15;;;;;;;3.70;2.63;;;28.20;41.60;;;;;;4990720;28;20046;-68
2023/08/10 04:10:41;;;;;;;5.57;3.10;;;28.20;41.50;;;;;;4990445;28;20065;-67
2023/08/10 04:13:07;;;;;;;4.65;2.67;;;28.20;42.40;;;;;;4990771;28;20049;-70
2023/08/10 04:15:34;;;;;;;7.47;3.00;;;28.50;44.60;;;;;;4990420;28;20078;-69
2023/08/10 04:18:06;;;;;;;4.45;2.83;;;28.70;46.50;;;;;;4974403;28;20049;-69
2023/08/10 04:20:32;;;;;;;5.78;2.92;;;29.20;49.40;;;;;;4974267;28;20042;-68
2023/08/10 04:22:59;;;;;;;4.32;3.15;;;29.00;44.90;;;;;;4990708;28;20125;-68
2023/08/10 04:25:26;;;;;;;7.38;3.25;;;28.80;42.40;;;;;;4990347;28;20046;-67
2023/08/10 04:27:52;;;;;;;4.43;2.78;;;28.80;42.80;;;;;;4992677;28;20089;-70
2023/08/10 04:30:19;;;;;;;3.97;2.80;;;28.80;43.00;;;;;;4992880;28;20479;-70
2023/08/10 04:32:45;;;;;;;6.65;2.88;;;28.60;42.90;;;;;;4992682;28;20498;-68
2023/08/10 04:35:11;;;;;;;8.27;3.55;;;28.60;42.80;;;;;;4992310;28;20054;-69
2023/08/10 04:37:37;;;;;;;5.70;3.10;;;28.50;42.70;;;;;;4992424;28;20101;-69
2023/08/10 04:40:09;;;;;;;5.68;2.75;;;28.50;42.70;;;;;;4992534;28;20027;-70
2023/08/10 04:42:38;;;;;;;5.65;2.63;;;28.40;42.70;;;;;;4992447;28;20029;-69
2023/08/10 04:45:05;;;;;;;3.28;2.60;;;28.40;42.70;;;;;;4989543;28;20034;-69
2023/08/10 04:47:31;;;;;;;8.82;2.65;;;28.50;42.60;;;;;;4989781;28;20149;-69
2023/08/10 04:49:57;;;;;;;7.03;3.10;;;28.50;42.80;;;;;;4989830;28;20042;-69
2023/08/10 04:52:23;;;;;;;7.18;3.08;;;28.40;43.00;;;;;;4989826;28;20439;-68
2023/08/10 04:54:49;;;;;;;6.25;3.22;;;28.50;43.00;;;;;;4989622;28;20046;-68
2023/08/10 04:57:15;;;;;;;9.93;3.40;;;28.40;42.80;;;;;;4989837;28;20038;-68
2023/08/10 04:59:45;;;;;;;5.95;3.08;;;28.40;42.70;;;;;;4973335;28;20493;-67
2023/08/10 05:02:11;;;;;;;5.78;3.80;;;28.60;41.80;;;;;;4989940;28;20037;-67
2023/08/10 05:04:49;;;;;;;7.88;4.00;;;28.30;41.30;;;;;;4989419;28;20042;-68
2023/08/10 05:07:15;;;;;;;10.70;4.22;;;28.40;40.50;;;;;;4989549;28;20054;-67
2023/08/10 05:09:41;;;;;;;8.05;4.18;;;28.20;38.80;;;;;;4989445;28;20053;-69
2023/08/10 05:12:07;;;;;;;10.50;4.35;;;28.30;38.90;;;;;;4989745;28;20112;-69
2023/08/10 05:14:34;;;;;;;11.07;4.35;;;28.30;39.70;;;;;;4989577;28;20117;-69
2023/08/10 05:17:00;;;;;;;10.35;4.55;;;28.20;39.90;;;;;;4991470;28;20081;-69
2023/08/10 05:19:26;;;;;;;8.55;3.45;;;28.20;40.20;;;;;;4991781;28;20038;-68
2023/08/10 05:21:52;;;;;;;9.18;3.78;;;28.30;40.60;;;;;;4991192;28;20034;-68
2023/08/10 05:24:18;;;;;;;10.00;3.83;;;28.10;40.60;;;;;;4991796;28;20034;-69
2023/08/10 05:26:45;;;;;;;9.63;3.72;;;28.10;41.10;;;;;;4991692;28;20481;-68
2023/08/10 05:29:13;;;;;;;7.53;2.88;;;28.10;41.50;;;;;;4991764;28;20189;-68
2023/08/10 05:31:40;;;;;;;8.70;3.05;;;28.10;41.50;;;;;;4991704;28;20121;-69
2023/08/10 05:34:10;;;;;;;6.18;3.45;;;28.10;41.80;;;;;;4991606;28;20100;-69
2023/08/10 05:36:36;;;;;;;4.47;2.83;;;28.20;42.00;;;;;;4991674;28;20505;-69
2023/08/10 05:39:03;;;;;;;4.60;3.03;;;28.30;42.20;;;;;;4991898;28;20034;-68
2023/08/10 05:41:29;;;;;;;5.85;3.50;;;28.20;42.40;;;;;;4991572;28;20759;-70
2023/08/10 05:43:55;;;;;;;6.50;3.35;;;28.10;42.60;;;;;;4991874;28;20038;-69
2023/08/10 05:46:21;;;;;;;6.72;2.85;;;28.20;42.90;;;;;;4991399;28;20073;-69
2023/08/10 05:48:49;;;;;;;6.25;3.58;;;28.20;43.10;;;;;;4990278;28;20049;-68
2023/08/10 05:51:15;;;;;;;9.30;2.88;;;28.10;43.30;;;;;;4991750;28;20805;-69
2023/08/10 05:53:41;;;;;;;5.57;3.25;;;28.20;43.40;;;;;;4991728;28;20042;-69
2023/08/10 05:56:08;;;;;;;4.78;2.95;;;28.20;43.50;;;;;;4991540;28;20041;-69
2023/08/10 05:58:34;;;;;;;6.18;2.97;;;28.20;43.50;;;;;;4991525;28;20030;-70
2023/08/10 06:01:01;;;;;;;5.63;3.05;;;28.20;43.60;;;;;;4991660;28;20065;-69
2023/08/10 06:03:27;;;;;;;5.10;2.75;;;28.20;43.60;;;;;;4991385;28;20041;-70
2023/08/10 06:05:54;;;;;;;3.58;2.70;;;28.30;43.70;;;;;;4991495;28;20031;-69
2023/08/10 06:08:22;;;;;;;6.78;2.85;;;28.20;43.70;;;;;;4991508;28;20065;-69
2023/08/10 06:10:51;;;;;;;5.72;3.05;;;28.20;43.80;;;;;;4991517;28;20030;-71
2023/08/10 06:13:18;;;;;;;9.65;3.28;;;28.30;43.80;;;;;;4991344;28;20058;-70
2023/08/10 06:15:57;;;;;;;7.93;3.33;;;28.10;43.90;;;;;;4991235;28;20041;-70
2023/08/10 06:18:23;;;;;;;3.97;2.30;;;28.00;43.90;;;;;;4991435;28;20038;-69
2023/08/10 06:20:50;;;;;;;7.93;3.10;;;28.10;44.00;;;;;;4991580;28;20506;-69
2023/08/10 06:23:18;;;;;;;6.70;2.95;;;28.10;44.10;;;;;;5002129;28;20037;-69
2023/08/10 06:25:53;;;;;;;5.40;2.78;;;28.10;44.10;;;;;;4991220;28;20038;-70
2023/08/10 06:28:20;;;;;;;3.70;3.15;;;28.10;44.20;;;;;;4991100;28;20046;-69
2023/08/10 06:30:46;;;;;;;5.20;2.60;;;28.10;44.10;;;;;;4991625;28;20031;-68
2023/08/10 06:33:13;;;;;;;6.45;3.55;;;28.10;45.00;;;;;;4997333;28;20068;-69
2023/08/10 06:35:43;;;;;;;4.97;3.10;;;28.00;43.90;;;;;;5032989;28;20033;-68
2023/08/10 06:38:10;;;;;;;5.65;3.05;;;28.10;43.60;;;;;;5033882;28;20057;-68
2023/08/10 06:40:36;;;;;;;4.93;2.85;;;28.00;43.60;;;;;;5033986;28;20026;-68
2023/08/10 06:43:03;;;;;;;11.73;3.35;;;28.00;43.50;;;;;;5032548;28;20042;-68
2023/08/10 06:45:59;;;;;;;4.25;2.60;;;28.10;43.40;;;;;;5007177;28;20116;-68
2023/08/10 06:48:25;;;;;;;5.72;2.45;;;28.00;43.50;;;;;;5026552;28;20415;-68
2023/08/10 06:50:51;;;;;;;5.95;2.85;;;28.00;43.40;;;;;;5033914;28;20040;-68
2023/08/10 06:53:18;;;;;;;4.10;2.60;;;28.10;43.30;;;;;;5033966;28;20041;-69
2023/08/10 06:55:53;;;;;;;6.15;2.70;;;28.20;43.20;;;;;;5033311;28;20466;-69
2023/08/10 06:58:19;;;;;;;3.20;2.15;;;28.10;43.30;;;;;;5033057;28;20041;-67
2023/08/10 07:00:45;;;;;;;7.30;2.88;;;28.00;43.30;;;;;;5033461;28;20040;-69
2023/08/10 07:03:12;;;;;;;7.35;2.75;;;28.10;43.30;;;;;;5015680;28;20357;-69
2023/08/10 07:05:38;;;;;;;4.03;2.90;;;28.10;43.20;;;;;;5033483;28;20030;-71
2023/08/10 07:08:05;;;;;;;5.15;2.70;;;28.10;43.10;;;;;;5033606;28;20033;-70
2023/08/10 07:10:31;;;;;;;5.47;2.40;;;28.00;43.20;;;;;;5026052;28;20094;-68
2023/08/10 07:12:57;;;;;;;2.83;2.22;;;28.20;43.30;;;;;;5033681;28;20022;-68
2023/08/10 07:15:23;;;;;;;7.05;2.70;;;28.10;43.30;;;;;;5033346;28;20150;-69
2023/08/10 07:17:49;;;;;;;6.90;2.45;;;28.00;43.50;;;;;;5032169;28;20382;-69
2023/08/10 07:20:18;;;;;;;4.07;3.15;;;28.00;43.20;;;;;;5033301;28;20040;-69
2023/08/10 07:22:45;;;;;;;8.13;3.10;;;27.90;43.10;;;;;;5033398;28;20029;-69
2023/08/10 07:25:19;;;;;;;3.25;2.90;;;28.00;43.40;;;;;;5033611;28;20029;-70
2023/08/10 07:27:47;;;;;;;3.13;2.83;;;28.00;43.00;;;;;;5033147;28;20037;-70
2023/08/10 07:30:14;;;;;;;3.33;2.40;;;28.00;43.20;;;;;;5033290;28;20508;-68
2023/08/10 07:32:41;;;;;;;3.92;2.47;;;27.90;44.00;;;;;;5033305;28;20139;-69
2023/08/10 07:35:08;;;;;;;4.95;3.05;;;28.10;44.80;;;;;;5032912;28;20041;-70
2023/08/10 07:37:35;;;;;;;6.80;2.55;;;28.10;43.80;;;;;;5033210;28;20033;-69
2023/08/10 07:40:15;;;;;;;4.15;3.20;;;28.10;44.20;;;;;;5033242;28;20071;-70
2023/08/10 07:42:50;;;;;;;4.18;3.40;;;28.10;45.40;;;;;;5015100;28;20170;-69
2023/08/10 07:45:46;;;;;;;4.18;2.88;;;28.20;46.60;;;;;;5012751;28;20110;-73
2023/08/10 07:48:12;;;;;;;9.05;2.65;;;28.10;43.50;;;;;;5013198;28;20045;-71
2023/08/10 07:50:38;;;;;;;6.38;2.63;;;28.30;43.60;;;;;;5013263;28;20057;-69
2023/08/10 07:53:04;;;;;;;4.97;2.60;;;28.10;43.40;;;;;;5013214;28;20120;-70
2023/08/10 07:55:30;;;;;;;9.43;2.60;;;28.10;43.30;;;;;;5011855;28;20041;-70
2023/08/10 07:57:56;;;;;;;3.08;2.25;;;28.30;43.40;;;;;;5012875;28;20072;-72
2023/08/10 08:00:22;;;;;;;4.05;2.38;;;28.20;43.60;;;;;;4994214;28;20193;-69
2023/08/10 08:02:52;;;;;;;5.43;2.20;;;28.30;43.80;;;;;;5012765;28;20986;-71
2023/08/10 08:05:18;;;;;;;4.43;2.35;;;28.20;43.80;;;;;;5011581;28;20101;-70
2023/08/10 08:07:44;;;;;;;3.15;2.30;;;28.20;43.80;;;;;;5012514;28;20496;-70
2023/08/10 08:10:10;;;;;;;5.60;2.85;;;28.30;43.90;;;;;;5012460;28;20398;-69
2023/08/10 08:13:15;;;;;;;3.33;2.25;;;28.30;43.80;;;;;;5012404;28;20088;-67
2023/08/10 08:15:43;;;;;;;4.32;2.30;;;28.40;43.80;;;;;;5012696;28;20033;-70
2023/08/10 08:18:48;;;;;;;2.92;2.28;;;28.50;43.70;;;;;;5012124;28;20068;-70
2023/08/10 08:21:16;;;;;;;2.83;2.50;;;28.40;43.50;;;;;;5012372;28;20076;-70
2023/08/10 08:23:44;;;;;;;3.83;2.50;;;28.30;43.50;;;;;;5012349;28;20038;-70
2023/08/10 08:26:37;;;;;;;3.30;2.20;;;28.30;43.50;;;;;;5011875;28;20040;-70
2023/08/10 08:29:04;;;;;;;3.92;2.03;;;28.30;43.40;;;;;;5012361;28;20096;-74
2023/08/10 08:31:30;;;;;;;3.25;2.08;;;28.30;43.40;;;;;;5012097;28;20041;-73
2023/08/10 08:33:56;;;;;;;2.72;2.42;;;28.30;43.20;;;;;;5017406;28;20037;-77
2023/08/10 08:36:34;;;;;;;3.75;2.78;;;28.10;43.30;;;;;;5031933;28;20037;-73
2023/08/10 08:39:01;;;;;;;5.03;2.42;;;28.20;43.40;;;;;;5032157;28;20117;-72
2023/08/10 08:41:33;;;;;;;4.70;2.20;;;28.20;43.50;;;;;;5013974;28;20041;-72
2023/08/10 08:44:00;;;;;;;5.40;2.60;;;28.20;44.30;;;;;;5013959;28;20029;-72
2023/08/10 08:46:30;;;;;;;3.03;2.50;;;28.20;44.00;;;;;;5031611;28;20041;-76
2023/08/10 08:48:57;;;;;;;5.07;1.98;;;28.30;43.80;;;;;;5014217;28;20497;-76
2023/08/10 08:51:24;;;;;;;3.88;2.47;;;28.30;43.90;;;;;;5031675;28;20037;-70
2023/08/10 08:54:02;;;;;;;6.70;2.30;;;28.30;43.90;;;;;;5031558;28;20036;-70
2023/08/10 08:56:31;;;;;;;2.55;2.22;;;28.30;43.80;;;;;;5030779;28;20056;-73
2023/08/10 08:59:03;;;;;;;2.47;2.20;;;28.30;43.90;;;;;;5031863;28;20037;-79
2023/08/10 09:01:47;;;;;;;6.18;1.85;;;28.40;45.20;;;;;;5030169;28;20499;-77
2023/08/10 09:04:13;;;;;;;4.70;2.92;;;28.40;45.50;;;;;;5031346;28;20509;-76
2023/08/10 09:06:40;;;;;;;11.23;5.05;;;28.50;46.40;;;;;;5031132;28;20573;-77
2023/08/10 09:09:14;;;;;;;73.40;25.00;;;28.50;46.60;;;;;;5031625;28;20117;-78
2023/08/10 09:11:40;;;;;;;16.58;5.95;;;28.60;46.20;;;;;;5031228;28;20470;-77
2023/08/10 09:14:08;;;;;;;6.13;3.13;;;28.60;44.30;;;;;;5031469;28;20037;-75
2023/08/10 09:17:07;;;;;;;4.63;2.65;;;28.60;43.90;;;;;;5030881;28;20033;-78
2023/08/10 09:19:45;;;;;;;3.42;2.35;;;28.60;43.90;;;;;;4970194;28;20105;-78
2023/08/10 09:22:25;;;;;;;5.28;2.78;;;28.70;43.90;;;;;;4969904;28;20042;-77
2023/08/10 09:25:13;;;;;;;2.03;1.40;;;28.60;44.30;;;;;;4970121;28;20051;-83
2023/08/10 09:27:47;;;;;;;7.00;2.20;;;28.70;44.20;;;;;;4969966;28;20042;-80
2023/08/10 09:30:16;;;;;;;4.85;2.30;;;28.70;44.10;;;;;;4970350;28;20043;-79
2023/08/10 09:33:04;;;;;;;4.10;1.70;;;28.70;44.10;;;;;;4971116;28;20042;-78
2023/08/10 09:35:57;;;;;;;4.93;2.30;;;28.70;44.10;;;;;;4969914;28;20121;-76
2023/08/10 09:38:24;;;;;;;4.43;1.33;;;28.60;44.00;;;;;;4962244;28;20094;-76
2023/08/10 09:41:05;;;;;;;3.92;2.17;;;28.80;44.30;;;;;;4970007;28;20039;-75
2023/08/10 09:43:32;;;;;;;4.32;2.03;;;28.60;44.40;;;;;;4973165;28;20145;-69
2023/08/10 09:46:05;;;;;;;3.63;1.90;;;28.80;45.60;;;;;;4989188;28;20151;-75
2023/08/10 09:48:38;;;;;;;2.63;1.80;;;28.70;45.00;;;;;;4988776;28;20034;-74
2023/08/10 09:51:08;;;;;;;2.78;1.73;;;28.70;44.80;;;;;;4988908;28;20042;-74
2023/08/10 09:53:35;;;;;;;2.22;1.40;;;28.70;44.60;;;;;;4989110;28;20116;-72
2023/08/10 09:56:02;;;;;;;2.55;2.03;;;28.80;44.60;;;;;;5000017;28;20517;-72
2023/08/10 09:58:49;;;;;;;5.15;2.40;;;28.60;44.60;;;;;;5049379;28;20071;-78
2023/08/10 10:01:16;;;;;;;1.45;1.35;;;28.60;44.70;;;;;;5050885;28;20033;-74
2023/08/10 10:03:43;;;;;;;3.30;1.95;;;28.70;44.80;;;;;;5049538;28;20037;-73
2023/08/10 10:06:11;;;;;;;1.85;1.40;;;28.70;44.80;;;;;;5050503;28;20473;-76
2023/08/10 10:08:41;;;;;;;3.90;1.58;;;28.70;44.40;;;;;;5053104;28;20053;-68
2023/08/10 10:11:11;;;;;;;2.20;1.90;;;28.60;45.00;;;;;;5054748;28;20746;-69
2023/08/10 10:13:39;;;;;;;4.95;1.83;;;28.70;45.30;;;;;;5054711;28;20021;-69
2023/08/10 10:16:12;;;;;;;3.00;1.77;;;28.60;45.80;;;;;;5054780;28;20041;-68
2023/08/10 10:18:40;;;;;;;1.33;1.20;;;28.60;45.80;;;;;;5054345;28;20029;-69
2023/08/10 10:21:06;;;;;;;2.83;1.73;;;28.70;45.50;;;;;;5054311;28;20537;-69
2023/08/10 10:23:32;;;;;;;1.55;1.45;;;28.70;45.30;;;;;;5054305;28;20057;-70
2023/08/10 10:26:01;;;;;;;1.48;1.25;;;28.70;45.30;;;;;;5054271;28;20481;-68
2023/08/10 10:28:31;;;;;;;4.15;2.20;;;28.60;44.70;;;;;;5054106;28;20051;-72
2023/08/10 10:31:11;;;;;;;3.00;1.80;;;28.60;45.00;;;;;;5052902;28;20086;-69
2023/08/10 10:33:39;;;;;;;4.03;1.55;;;28.80;45.10;;;;;;5035102;28;20046;-72
2023/08/10 10:36:18;;;;;;;2.03;1.60;;;28.60;45.10;;;;;;5052632;28;20037;-69
2023/08/10 10:38:52;;;;;;;3.47;2.33;;;28.70;45.20;;;;;;5054269;28;20091;-68
2023/08/10 10:41:32;;;;;;;4.32;2.35;;;28.70;46.50;;;;;;5054046;28;20119;-67
2023/08/10 10:44:02;;;;;;;5.43;2.13;;;29.00;48.60;;;;;;5046716;28;20030;-68
2023/08/10 10:46:31;;;;;;;2.28;2.05;;;29.10;50.20;;;;;;5033841;28;20044;-69
2023/08/10 10:48:58;;;;;;;3.95;1.33;;;29.10;51.00;;;;;;5033889;28;20044;-68
2023/08/10 10:51:25;;;;;;;3.60;1.30;;;29.00;48.90;;;;;;5034021;28;20029;-67
2023/08/10 10:54:08;;;;;;;4.07;1.65;;;28.90;48.10;;;;;;5034042;28;20040;-67
2023/08/10 10:56:35;;;;;;;4.07;1.60;;;28.90;47.20;;;;;;5027704;28;20424;-67
2023/08/10 10:59:01;;;;;;;3.55;1.65;;;28.90;46.70;;;;;;5032251;28;20030;-68
2023/08/10 11:01:28;;;;;;;5.30;1.63;;;28.90;46.30;;;;;;5033487;28;20617;-68
2023/08/10 11:03:55;;;;;;;3.72;1.48;;;28.90;46.20;;;;;;5033603;28;20068;-68
2023/08/10 11:06:24;;;;;;;3.33;2.33;;;28.80;46.20;;;;;;5025185;28;20038;-67
2023/08/10 11:08:53;;;;;;;2.97;2.20;;;28.90;48.00;;;;;;5033520;28;20033;-67
2023/08/10 11:11:22;;;;;;;2.05;1.80;;;29.10;48.90;;;;;;5033355;28;20029;-69
2023/08/10 11:13:52;;;;;;;3.72;2.25;;;29.30;50.90;;;;;;5030714;28;20030;-68
2023/08/10 11:16:18;;;;;;;3.42;1.95;;;29.30;48.20;;;;;;5033280;28;20436;-69
2023/08/10 11:18:47;;;;;;;2.03;1.85;;;29.30;48.60;;;;;;5032936;28;20037;-68
2023/08/10 11:21:14;;;;;;;2.72;1.92;;;29.40;50.20;;;;;;5033453;28;20037;-68
2023/08/10 11:23:40;;;;;;;4.35;1.63;;;29.50;49.10;;;;;;5031895;28;20120;-68
2023/08/10 11:26:08;;;;;;;4.65;1.98;;;29.50;49.30;;;;;;5033278;28;20029;-68
2023/08/10 11:28:34;;;;;;;5.70;2.20;;;29.70;50.10;;;;;;5032501;28;20041;-69
2023/08/10 11:31:02;;;;;;;2.17;1.73;;;29.80;50.80;;;;;;5033105;28;20212;-69
2023/08/10 11:33:28;;;;;;;2.58;1.73;;;30.00;51.30;;;;;;5032741;28;20053;-68
2023/08/10 11:35:54;;;;;;;2.13;1.67;;;29.90;50.60;;;;;;5032919;28;20479;-70
2023/08/10 11:38:21;;;;;;;2.90;2.17;;;29.90;48.00;;;;;;5032622;28;20044;-68
2023/08/10 11:40:47;;;;;;;2.75;1.90;;;29.70;47.20;;;;;;5032672;28;20041;-69
2023/08/10 11:43:19;;;;;;;3.55;2.05;;;29.70;46.60;;;;;;5015178;28;20068;-69
2023/08/10 11:45:46;;;;;;;4.35;1.80;;;29.60;46.40;;;;;;5032927;28;20029;-69
2023/08/10 11:48:16;;;;;;;3.10;2.03;;;29.70;46.20;;;;;;5032932;28;20038;-69
2023/08/10 11:50:43;;;;;;;2.70;1.75;;;29.60;47.00;;;;;;5032643;28;20041;-68
2023/08/10 11:53:19;;;;;;;4.28;1.67;;;29.60;46.70;;;;;;5015118;28;20074;-68
2023/08/10 11:55:47;;;;;;;2.05;1.67;;;29.60;47.00;;;;;;5032782;28;20068;-69
2023/08/10 11:58:14;;;;;;;3.40;2.63;;;29.50;47.50;;;;;;5032508;28;20041;-68
2023/08/10 12:00:42;;;;;;;3.63;2.13;;;29.50;47.90;;;;;;5032471;28;20223;-68
2023/08/10 12:03:28;;;;;;;4.97;1.90;;;29.50;47.70;;;;;;5032492;28;20037;-68
2023/08/10 12:05:59;;;;;;;2.13;1.92;;;29.40;47.70;;;;;;5014634;28;20065;-69
2023/08/10 12:08:26;;;;;;;1.73;1.40;;;29.40;47.90;;;;;;5032078;28;20045;-69
2023/08/10 12:11:05;;;;;;;1.83;1.65;;;29.30;47.80;;;;;;5032364;28;20065;-68
2023/08/10 12:13:33;;;;;;;2.15;1.25;;;29.40;48.00;;;;;;5032247;28;20025;-68
2023/08/10 12:16:02;;;;;;;2.00;1.70;;;29.30;47.60;;;;;;5032246;28;20079;-68
2023/08/10 12:18:29;;;;;;;2.22;1.67;;;29.30;47.50;;;;;;5032024;28;20809;-68
2023/08/10 12:20:55;;;;;;;2.38;1.77;;;29.30;47.30;;;;;;5014651;28;20101;-68
2023/08/10 12:23:21;;;;;;;2.75;1.75;;;29.40;47.20;;;;;;5032325;28;20021;-68
2023/08/10 12:25:48;;;;;;;1.70;1.60;;;29.30;47.20;;;;;;5032108;28;20061;-68
2023/08/10 12:28:18;;;;;;;2.60;1.48;;;29.30;47.20;;;;;;5031975;28;20060;-68
2023/08/10 12:30:48;;;;;;;3.30;2.13;;;29.30;47.20;;;;;;5032124;28;20072;-68
2023/08/10 12:33:15;;;;;;;3.28;1.90;;;29.30;47.20;;;;;;5031924;28;20061;-69
2023/08/10 12:35:42;;;;;;;2.00;1.63;;;29.30;47.50;;;;;;5031919;28;20045;-68
2023/08/10 12:38:10;;;;;;;3.08;1.70;;;29.20;47.50;;;;;;5031795;28;20032;-68
2023/08/10 12:40:37;;;;;;;2.33;1.45;;;29.20;47.50;;;;;;5031730;28;20068;-68
2023/08/10 12:43:03;;;;;;;1.35;1.20;;;29.20;47.50;;;;;;5032154;28;20037;-68
2023/08/10 12:45:29;;;;;;;2.05;1.75;;;29.20;47.60;;;;;;5031705;28;20037;-69
2023/08/10 12:47:56;;;;;;;2.25;1.50;;;29.20;48.10;;;;;;5031689;28;20034;-69
2023/08/10 12:50:25;;;;;;;1.63;1.30;;;29.10;48.10;;;;;;5031814;28;20033;-68
2023/08/10 12:52:51;;;;;;;1.90;1.70;;;29.10;48.30;;;;;;5031813;28;20112;-68
2023/08/10 12:55:18;;;;;;;1.52;1.42;;;29.20;48.80;;;;;;5031824;28;20033;-68
2023/08/10 12:57:45;;;;;;;2.30;1.88;;;29.10;49.80;;;;;;5030367;28;20042;-68